createdAt,value
2022-09-21T00:01:13.561Z,4.63
2022-09-21T00:03:42.384Z,11.10
2022-09-21T00:06:12.295Z,5.60
2022-09-21T00:08:40.292Z,5.80
2022-09-21T00:11:12.814Z,5.07
2022-09-21T00:13:40.825Z,3.47
2022-09-21T00:16:09.529Z,3.97
2022-09-21T00:18:38.989Z,2.90
2022-09-21T00:21:11.054Z,5.97
2022-09-21T00:23:39.256Z,5.83
2022-09-21T00:26:12.753Z,3.23
2022-09-21T00:28:41.275Z,4.40
2022-09-21T00:31:12.085Z,5.83
2022-09-21T00:33:40.933Z,3.83
2022-09-21T00:36:11.377Z,7.63
2022-09-21T00:38:39.537Z,8.03
2022-09-21T00:41:11.166Z,3.90
2022-09-21T00:43:43.806Z,5.00
2022-09-21T00:46:16.755Z,4.13
2022-09-21T00:48:46.932Z,3.87
2022-09-21T00:51:15.110Z,5.27
2022-09-21T00:53:42.974Z,3.37
2022-09-21T00:56:13.757Z,5.33
2022-09-21T00:58:46.137Z,3.90
2022-09-21T01:01:16.532Z,5.10
2022-09-21T01:03:45.764Z,2.80
2022-09-21T01:06:14.962Z,6.00
2022-09-21T01:08:43.917Z,4.37
2022-09-21T01:11:35.449Z,8.53
2022-09-21T01:14:22.759Z,3.13
2022-09-21T01:17:03.549Z,8.60
2022-09-21T01:19:55.393Z,10.57
2022-09-21T01:22:37.950Z,5.83
2022-09-21T01:25:13.291Z,5.63
2022-09-21T01:27:54.207Z,7.77
2022-09-21T01:30:24.637Z,7.03
2022-09-21T01:32:56.320Z,8.20
2022-09-21T01:35:28.818Z,4.33
2022-09-21T01:38:00.295Z,4.30
2022-09-21T01:40:35.569Z,6.63
2022-09-21T01:43:06.422Z,3.80
2022-09-21T01:45:40.796Z,3.83
2022-09-21T01:48:09.489Z,9.33
2022-09-21T01:50:39.804Z,6.97
2022-09-21T01:53:14.040Z,2.90
2022-09-21T01:55:46.123Z,3.97
2022-09-21T01:58:19.547Z,6.40
2022-09-21T02:00:53.157Z,5.43
2022-09-21T02:03:27.798Z,5.13
2022-09-21T02:05:57.143Z,4.03
2022-09-21T02:08:26.770Z,6.57
2022-09-21T02:10:55.881Z,5.60
2022-09-21T02:13:27.600Z,3.23
2022-09-21T02:16:12.261Z,7.23
2022-09-21T02:18:57.375Z,4.53
2022-09-21T02:21:31.862Z,3.20
2022-09-21T02:24:09.138Z,4.60
2022-09-21T02:26:46.102Z,2.50
2022-09-21T02:29:21.661Z,7.60
2022-09-21T02:31:56.596Z,4.23
2022-09-21T02:34:33.365Z,3.60
2022-09-21T02:37:10.290Z,6.93
2022-09-21T02:39:43.792Z,3.30
2022-09-21T02:42:17.571Z,3.90
2022-09-21T02:44:52.286Z,3.17
2022-09-21T02:47:25.391Z,3.93
2022-09-21T02:49:57.678Z,2.97
2022-09-21T02:52:29.346Z,2.97
2022-09-21T02:54:58.446Z,6.33
2022-09-21T02:57:27.568Z,5.97
2022-09-21T02:59:55.401Z,7.67
2022-09-21T03:02:24.576Z,2.77
2022-09-21T03:04:52.457Z,5.00
2022-09-21T03:07:20.298Z,2.93
2022-09-21T03:09:48.122Z,3.77
2022-09-21T03:12:15.903Z,7.17
2022-09-21T03:14:43.650Z,3.80
2022-09-21T03:17:11.504Z,5.40
2022-09-21T03:19:40.659Z,4.97
2022-09-21T03:22:08.468Z,5.03
2022-09-21T03:24:48.096Z,3.30
2022-09-21T03:27:17.438Z,4.73
2022-09-21T03:29:45.767Z,6.03
2022-09-21T03:32:14.393Z,6.80
2022-09-21T03:34:43.949Z,6.73
2022-09-21T03:37:12.643Z,5.53
2022-09-21T03:39:40.456Z,6.93
2022-09-21T03:42:09.937Z,4.93
2022-09-21T03:44:38.285Z,5.33
2022-09-21T03:47:06.749Z,7.57
2022-09-21T03:49:35.022Z,7.57
2022-09-21T03:52:04.503Z,4.17
2022-09-21T03:54:32.295Z,3.97
2022-09-21T03:57:00.059Z,5.23
2022-09-21T03:59:27.862Z,4.67
2022-09-21T04:01:55.618Z,5.70
2022-09-21T04:04:23.441Z,4.80
2022-09-21T04:06:51.544Z,5.30
2022-09-21T04:09:20.687Z,4.90
2022-09-21T04:11:48.858Z,8.87
2022-09-21T04:14:17.612Z,5.77
2022-09-21T04:16:45.445Z,9.00
2022-09-21T04:19:13.374Z,9.20
2022-09-21T04:21:41.219Z,6.20
2022-09-21T04:24:09.049Z,11.37
2022-09-21T04:26:38.329Z,8.83
2022-09-21T04:29:06.457Z,9.63
2022-09-21T04:31:34.661Z,5.13
2022-09-21T04:34:02.445Z,5.47
2022-09-21T04:36:36.399Z,6.20
2022-09-21T04:39:05.551Z,5.67
2022-09-21T04:41:33.570Z,7.50
2022-09-21T04:44:03.383Z,5.70
2022-09-21T04:46:31.564Z,8.43
2022-09-21T04:48:59.448Z,5.17
2022-09-21T04:51:27.412Z,6.47
2022-09-21T04:53:55.192Z,4.27
2022-09-21T04:56:22.971Z,8.73
2022-09-21T04:58:50.828Z,10.13
2022-09-21T05:01:20.093Z,9.00
2022-09-21T05:03:47.979Z,11.10
2022-09-21T05:06:15.778Z,6.27
2022-09-21T05:09:01.152Z,8.93
2022-09-21T05:11:29.220Z,9.57
2022-09-21T05:13:57.233Z,12.30
2022-09-21T05:16:26.638Z,8.63
2022-09-21T05:18:55.871Z,11.93
2022-09-21T05:21:23.965Z,7.40
2022-09-21T05:23:52.188Z,6.20
2022-09-21T05:26:20.953Z,9.40
2022-09-21T05:28:49.844Z,11.60
2022-09-21T05:31:33.733Z,8.93
2022-09-21T05:34:08.175Z,6.00
2022-09-21T05:36:46.194Z,6.20
2022-09-21T05:39:14.459Z,7.10
2022-09-21T05:41:42.983Z,7.67
2022-09-21T05:44:14.320Z,8.87
2022-09-21T05:46:54.067Z,10.07
2022-09-21T05:49:33.776Z,8.20
2022-09-21T05:52:10.370Z,18.77
2022-09-21T05:54:52.473Z,25.47
2022-09-21T05:57:30.902Z,18.37
2022-09-21T06:00:13.938Z,17.07
2022-09-21T06:03:02.686Z,18.23
2022-09-21T06:05:30.531Z,16.77
2022-09-21T06:07:58.357Z,16.17
2022-09-21T06:10:26.637Z,12.43
2022-09-21T06:12:54.451Z,13.90
2022-09-21T06:15:22.344Z,12.50
2022-09-21T06:17:51.690Z,7.50
2022-09-21T06:20:19.963Z,9.73
2022-09-21T06:22:47.996Z,9.37
2022-09-21T06:25:16.129Z,11.97
2022-09-21T06:27:44.244Z,11.00
2022-09-21T06:30:13.361Z,14.90
2022-09-21T06:32:41.451Z,11.20
2022-09-21T06:35:11.147Z,10.43
2022-09-21T06:37:40.227Z,10.43
2022-09-21T06:40:09.881Z,17.70
2022-09-21T06:42:37.941Z,10.53
2022-09-21T06:45:06.979Z,10.10
2022-09-21T06:47:34.995Z,19.07
2022-09-21T06:50:03.651Z,14.67
2022-09-21T06:52:33.270Z,14.20
2022-09-21T06:55:01.330Z,17.33
2022-09-21T06:57:29.417Z,11.77
2022-09-21T06:59:57.532Z,16.47
2022-09-21T07:02:25.678Z,15.23
2022-09-21T07:04:53.707Z,14.23
2022-09-21T07:07:21.916Z,13.47
2022-09-21T07:10:09.052Z,17.03
2022-09-21T07:12:39.830Z,14.90
2022-09-21T07:15:09.284Z,11.50
2022-09-21T07:17:38.957Z,14.37
2022-09-21T07:20:09.061Z,12.93
2022-09-21T07:22:37.838Z,16.50
2022-09-21T07:25:07.758Z,14.47
2022-09-21T07:27:35.777Z,20.07
2022-09-21T07:30:03.954Z,17.57
2022-09-21T07:32:32.152Z,12.07
2022-09-21T07:35:00.636Z,18.50
2022-09-21T07:37:29.325Z,14.30
2022-09-21T07:39:57.374Z,15.37
2022-09-21T07:42:27.971Z,18.10
2022-09-21T07:45:03.937Z,10.90
2022-09-21T07:47:32.283Z,13.80
2022-09-21T07:50:00.229Z,11.13
2022-09-21T07:52:29.086Z,9.27
2022-09-21T07:54:57.063Z,9.00
2022-09-21T07:57:44.237Z,8.73
2022-09-21T08:00:13.905Z,9.63
2022-09-21T08:02:47.271Z,6.40
2022-09-21T08:05:16.493Z,6.87
2022-09-21T08:07:44.605Z,7.63
2022-09-21T08:10:13.129Z,4.27
2022-09-21T08:12:44.213Z,4.67
2022-09-21T08:15:36.953Z,4.03
2022-09-21T08:18:02.793Z,5.70
2022-09-21T08:20:30.798Z,4.67
2022-09-21T08:22:58.805Z,4.73
2022-09-21T08:25:27.302Z,8.47
2022-09-21T08:28:00.709Z,5.37
2022-09-21T08:30:31.180Z,7.20
2022-09-21T08:32:59.226Z,3.73
2022-09-21T08:35:27.248Z,5.40
2022-09-21T08:37:55.647Z,1.67
2022-09-21T08:40:24.128Z,3.60
2022-09-21T08:43:01.507Z,1.87
2022-09-21T08:45:35.172Z,3.17
2022-09-21T08:48:07.194Z,2.63
2022-09-21T08:50:40.595Z,2.90
2022-09-21T08:53:13.544Z,3.40
2022-09-21T08:55:41.712Z,7.20
2022-09-21T08:58:23.214Z,2.43
2022-09-21T09:01:04.829Z,5.57
2022-09-21T09:03:52.251Z,2.53
2022-09-21T09:06:26.973Z,2.80
2022-09-21T09:09:21.391Z,1.57
2022-09-21T09:12:13.544Z,6.13
2022-09-21T09:15:09.189Z,2.70
2022-09-21T09:17:56.235Z,1.20
2022-09-21T09:20:30.368Z,4.17
2022-09-21T09:23:07.734Z,2.87
2022-09-21T09:25:39.878Z,1.20
2022-09-21T09:28:20.601Z,2.20
2022-09-21T09:30:57.993Z,1.57
2022-09-21T09:33:30.838Z,1.93
2022-09-21T09:36:04.121Z,1.00
2022-09-21T09:38:38.373Z,2.80
2022-09-21T09:41:33.977Z,2.50
2022-09-21T09:44:22.415Z,2.23
2022-09-21T09:47:01.497Z,4.43
2022-09-21T09:49:40.368Z,4.37
2022-09-21T09:52:13.104Z,1.93
2022-09-21T09:54:41.264Z,1.73
2022-09-21T09:57:11.978Z,1.20
2022-09-21T09:59:47.638Z,1.87
2022-09-21T10:02:25.439Z,4.83
2022-09-21T10:05:03.665Z,4.00
2022-09-21T10:07:36.697Z,3.43
2022-09-21T10:10:23.112Z,2.40
2022-09-21T10:12:52.571Z,3.33
2022-09-21T10:15:24.819Z,2.87
2022-09-21T10:18:16.726Z,2.10
2022-09-21T10:20:55.804Z,4.90
2022-09-21T10:23:24.646Z,1.73
2022-09-21T10:26:09.001Z,2.43
2022-09-21T10:28:37.481Z,0.93
2022-09-21T10:31:22.545Z,4.90
2022-09-21T10:33:55.599Z,2.83
2022-09-21T10:36:29.488Z,3.40
2022-09-21T10:38:58.306Z,1.53
2022-09-21T10:41:26.899Z,1.50
2022-09-21T10:43:55.370Z,2.63
2022-09-21T10:46:35.768Z,5.07
2022-09-21T10:49:05.394Z,5.60
2022-09-21T10:51:34.835Z,6.27
2022-09-21T10:54:09.298Z,6.47
2022-09-21T10:56:37.316Z,1.50
2022-09-21T10:59:13.760Z,2.53
2022-09-21T11:01:46.791Z,3.37
2022-09-21T11:04:23.711Z,1.33
2022-09-21T11:06:55.778Z,4.40
2022-09-21T11:09:30.236Z,2.10
2022-09-21T11:12:05.175Z,2.43
2022-09-21T11:14:44.683Z,5.40
2022-09-21T11:17:21.767Z,1.97
2022-09-21T11:19:55.536Z,3.20
2022-09-21T11:22:36.877Z,2.60
2022-09-21T11:25:22.369Z,2.87
2022-09-21T11:27:55.826Z,2.20
2022-09-21T11:30:24.500Z,3.20
2022-09-21T11:33:11.392Z,1.90
2022-09-21T11:35:48.966Z,3.70
2022-09-21T11:38:33.721Z,2.83
2022-09-21T11:41:15.072Z,2.87
2022-09-21T11:43:58.160Z,2.30
2022-09-21T11:46:39.647Z,2.73
2022-09-21T11:49:27.652Z,2.50
2022-09-21T11:52:11.531Z,3.00
2022-09-21T11:55:01.556Z,1.43
2022-09-21T11:57:36.065Z,1.07
2022-09-21T12:00:15.887Z,3.07
2022-09-21T12:03:08.952Z,1.87
2022-09-21T12:05:42.182Z,4.93
2022-09-21T12:08:28.534Z,3.67
2022-09-21T12:11:03.773Z,1.27
2022-09-21T12:13:38.000Z,2.37
2022-09-21T12:16:14.276Z,2.17
2022-09-21T12:18:48.233Z,1.50
2022-09-21T12:21:21.697Z,2.40
2022-09-21T12:23:54.084Z,1.43
2022-09-21T12:26:26.812Z,2.50
2022-09-21T12:29:00.713Z,3.23
2022-09-21T12:31:36.168Z,1.57
2022-09-21T12:34:11.141Z,5.00
2022-09-21T12:36:45.980Z,2.70
2022-09-21T12:39:22.125Z,4.27
2022-09-21T12:41:56.020Z,1.70
2022-09-21T12:44:29.898Z,1.27
2022-09-21T12:47:09.404Z,2.47
2022-09-21T12:49:42.712Z,1.53
2022-09-21T12:52:22.571Z,4.47
2022-09-21T12:54:59.585Z,1.30
2022-09-21T12:58:13.642Z,0.83
2022-09-21T13:00:25.948Z,1.90
2022-09-21T13:02:59.461Z,1.17
2022-09-21T13:05:37.658Z,0.83
2022-09-21T13:08:12.326Z,0.77
2022-09-21T13:10:54.736Z,2.37
2022-09-21T13:13:32.295Z,3.90
2022-09-21T13:16:01.972Z,3.20
2022-09-21T13:18:36.413Z,1.03
2022-09-21T13:21:17.504Z,1.30
2022-09-21T13:23:52.348Z,3.27
2022-09-21T13:26:33.958Z,0.57
2022-09-21T13:29:28.166Z,1.00
2022-09-21T13:31:59.083Z,2.00
2022-09-21T13:34:37.758Z,1.80
2022-09-21T13:37:30.320Z,1.37
2022-09-21T13:40:41.453Z,0.90
2022-09-21T13:43:24.008Z,1.30
2022-09-21T13:45:57.781Z,1.40
2022-09-21T13:48:30.525Z,2.80
2022-09-21T13:51:01.978Z,0.73
2022-09-21T13:53:40.042Z,1.63
2022-09-21T13:56:16.779Z,4.43
2022-09-21T13:58:50.606Z,0.60
2022-09-21T14:01:45.728Z,1.00
2022-09-21T14:04:24.087Z,1.90
2022-09-21T14:06:54.263Z,0.80
2022-09-21T14:09:27.590Z,3.40
2022-09-21T14:11:59.779Z,1.10
2022-09-21T14:14:33.428Z,2.23
2022-09-21T14:17:02.360Z,3.07
2022-09-21T14:20:03.516Z,1.17
2022-09-21T14:22:40.605Z,3.97
2022-09-21T14:25:36.213Z,3.30
2022-09-21T14:28:13.151Z,0.87
2022-09-21T14:30:51.062Z,1.37
2022-09-21T14:33:27.283Z,0.80
2022-09-21T14:35:57.524Z,2.47
2022-09-21T14:38:30.175Z,1.37
2022-09-21T14:41:03.174Z,0.77
2022-09-21T14:43:35.434Z,1.40
2022-09-21T14:46:48.101Z,1.03
2022-09-21T14:49:40.431Z,0.70
2022-09-21T14:52:27.839Z,0.77
2022-09-21T14:55:09.256Z,1.23
2022-09-21T14:58:07.999Z,1.77
2022-09-21T15:00:41.142Z,2.73
2022-09-21T15:03:44.965Z,0.90
2022-09-21T15:06:40.326Z,1.03
2022-09-21T15:09:51.239Z,0.40
2022-09-21T15:12:24.279Z,1.10
2022-09-21T15:15:01.468Z,3.80
2022-09-21T15:17:31.372Z,2.43
2022-09-21T15:20:00.856Z,1.07
2022-09-21T15:22:31.942Z,1.23
2022-09-21T15:25:05.459Z,6.43
2022-09-21T15:27:34.324Z,2.67
2022-09-21T15:30:06.043Z,3.33
2022-09-21T15:32:38.568Z,1.30
2022-09-21T15:35:17.529Z,1.27
2022-09-21T15:37:47.519Z,2.50
2022-09-21T15:40:21.762Z,0.80
2022-09-21T15:43:01.979Z,2.50
2022-09-21T15:45:33.914Z,3.10
2022-09-21T15:48:02.445Z,1.67
2022-09-21T15:50:31.374Z,3.03
2022-09-21T15:53:06.710Z,2.33
2022-09-21T15:55:34.778Z,4.70
2022-09-21T15:58:04.375Z,3.70
2022-09-21T16:00:35.274Z,6.83
2022-09-21T16:03:06.921Z,2.03
2022-09-21T16:05:44.467Z,1.00
2022-09-21T16:08:30.150Z,1.90
2022-09-21T16:11:16.654Z,1.03
2022-09-21T16:14:04.209Z,0.80
2022-09-21T16:16:32.626Z,1.60
2022-09-21T16:19:01.066Z,1.90
2022-09-21T16:21:33.837Z,1.20
2022-09-21T16:24:18.716Z,2.17
2022-09-21T16:26:58.460Z,1.43
2022-09-21T16:29:29.463Z,1.30
2022-09-21T16:32:21.401Z,2.83
2022-09-21T16:34:51.755Z,1.83
2022-09-21T16:37:28.055Z,1.67
2022-09-21T16:40:00.017Z,1.40
2022-09-21T16:42:32.798Z,0.60
2022-09-21T16:45:01.509Z,2.60
2022-09-21T16:47:30.153Z,1.47
2022-09-21T16:50:01.453Z,1.03
2022-09-21T16:52:30.734Z,1.43
2022-09-21T16:55:00.313Z,1.97
2022-09-21T16:57:28.716Z,3.00
2022-09-21T16:59:56.758Z,1.33
2022-09-21T17:02:25.202Z,3.03
2022-09-21T17:04:53.230Z,1.00
2022-09-21T17:07:21.232Z,1.97
2022-09-21T17:09:50.674Z,5.57
2022-09-21T17:12:20.343Z,1.90
2022-09-21T17:14:50.072Z,6.10
2022-09-21T17:17:20.486Z,3.93
2022-09-21T17:19:50.115Z,2.90
2022-09-21T17:22:19.262Z,8.87
2022-09-21T17:24:51.191Z,6.77
2022-09-21T17:27:23.312Z,3.97
2022-09-21T17:29:53.736Z,3.70
2022-09-21T17:32:23.941Z,3.00
2022-09-21T17:34:56.751Z,2.37
2022-09-21T17:37:26.090Z,2.27
2022-09-21T17:39:54.692Z,3.30
2022-09-21T17:42:25.968Z,1.60
2022-09-21T17:45:25.214Z,2.33
2022-09-21T17:47:54.102Z,2.70
2022-09-21T17:50:26.232Z,4.03
2022-09-21T17:53:13.384Z,4.47
2022-09-21T17:55:46.794Z,2.87
2022-09-21T17:58:40.142Z,3.20
2022-09-21T18:01:13.756Z,4.80
2022-09-21T18:03:44.655Z,6.27
2022-09-21T18:06:13.538Z,6.30
2022-09-21T18:08:42.538Z,10.30
2022-09-21T18:11:31.608Z,6.63
2022-09-21T18:14:09.364Z,9.03
2022-09-21T18:16:45.890Z,6.20
2022-09-21T18:19:32.243Z,7.10
2022-09-21T18:22:08.098Z,8.20
2022-09-21T18:24:36.552Z,11.97
2022-09-21T18:27:05.155Z,8.03
2022-09-21T18:29:39.736Z,11.23
2022-09-21T18:32:28.440Z,9.43
2022-09-21T18:35:22.771Z,7.83
2022-09-21T18:38:02.887Z,8.63
2022-09-21T18:40:41.050Z,6.53
2022-09-21T18:43:22.699Z,8.20
2022-09-21T18:46:00.465Z,8.23
2022-09-21T18:48:40.091Z,8.23
2022-09-21T18:51:16.274Z,8.87
2022-09-21T18:53:48.214Z,8.83
2022-09-21T18:56:17.080Z,6.07
2022-09-21T18:58:45.667Z,9.70
2022-09-21T19:01:17.055Z,15.93
2022-09-21T19:03:46.002Z,4.40
2022-09-21T19:06:32.570Z,5.80
2022-09-21T19:09:08.905Z,3.83
2022-09-21T19:11:44.768Z,9.07
2022-09-21T19:14:21.690Z,7.07
2022-09-21T19:17:03.992Z,4.50
2022-09-21T19:19:44.044Z,6.10
2022-09-21T19:22:16.571Z,6.23
2022-09-21T19:24:56.958Z,6.47
2022-09-21T19:27:34.510Z,10.37
2022-09-21T19:30:08.555Z,5.13
2022-09-21T19:32:43.837Z,8.77
2022-09-21T19:35:22.071Z,6.20
2022-09-21T19:37:51.927Z,4.87
2022-09-21T19:40:22.425Z,4.00
2022-09-21T19:43:10.178Z,4.27
2022-09-21T19:45:48.713Z,5.20
2022-09-21T19:48:22.314Z,5.67
2022-09-21T19:50:54.981Z,8.37
2022-09-21T19:53:41.324Z,6.00
2022-09-21T19:56:30.628Z,6.33
2022-09-21T19:59:16.948Z,5.60
2022-09-21T20:01:52.785Z,4.60
2022-09-21T20:04:32.195Z,6.27
2022-09-21T20:07:07.209Z,7.67
2022-09-21T20:09:42.190Z,5.20
2022-09-21T20:12:19.676Z,3.93
2022-09-21T20:14:53.138Z,9.87
2022-09-21T20:17:26.165Z,4.80
2022-09-21T20:20:00.417Z,10.37
2022-09-21T20:22:34.819Z,4.43
2022-09-21T20:25:08.044Z,5.47
2022-09-21T20:27:39.908Z,4.13
2022-09-21T20:30:10.829Z,5.77
2022-09-21T20:32:40.772Z,3.17
2022-09-21T20:35:16.591Z,6.03
2022-09-21T20:37:44.787Z,3.63
2022-09-21T20:40:13.383Z,5.73
2022-09-21T20:42:42.213Z,3.93
2022-09-21T20:45:11.885Z,3.47
2022-09-21T20:47:40.331Z,5.27
2022-09-21T20:50:11.808Z,2.57
2022-09-21T20:52:42.220Z,7.33
2022-09-21T20:55:12.614Z,12.10
2022-09-21T20:57:41.600Z,9.87
2022-09-21T21:00:12.444Z,9.67
2022-09-21T21:02:40.673Z,7.83
2022-09-21T21:05:10.456Z,7.33
2022-09-21T21:07:38.917Z,7.30
2022-09-21T21:10:11.924Z,5.90
2022-09-21T21:12:40.105Z,10.50
2022-09-21T21:15:09.271Z,11.17
2022-09-21T21:17:37.307Z,14.37
2022-09-21T21:20:06.574Z,18.70
2022-09-21T21:22:34.647Z,21.13
2022-09-21T21:25:02.700Z,18.80
2022-09-21T21:27:32.129Z,11.53
2022-09-21T21:30:01.489Z,14.33
2022-09-21T21:32:32.376Z,16.60
2022-09-21T21:35:00.637Z,11.17
2022-09-21T21:37:29.098Z,11.80
2022-09-21T21:39:57.745Z,9.20
2022-09-21T21:42:26.739Z,6.93
2022-09-21T21:44:58.204Z,12.27
2022-09-21T21:47:41.735Z,15.90
2022-09-21T21:50:10.666Z,14.60
2022-09-21T21:52:39.027Z,13.80
2022-09-21T21:55:07.862Z,10.40
2022-09-21T21:57:35.924Z,14.03
2022-09-21T22:00:06.609Z,16.83
2022-09-21T22:02:34.860Z,12.43
2022-09-21T22:05:02.848Z,11.97
2022-09-21T22:07:30.808Z,7.10
2022-09-21T22:09:58.824Z,7.63
2022-09-21T22:12:26.760Z,9.90
2022-09-21T22:14:54.781Z,9.93
2022-09-21T22:17:24.264Z,6.63
2022-09-21T22:19:54.066Z,11.53
2022-09-21T22:22:22.308Z,6.77
2022-09-21T22:24:50.231Z,6.13
2022-09-21T22:27:18.218Z,7.97
2022-09-21T22:29:46.202Z,9.93
2022-09-21T22:32:14.161Z,10.87
2022-09-21T22:34:43.463Z,8.60
2022-09-21T22:37:11.423Z,6.67
2022-09-21T22:39:39.355Z,7.97
2022-09-21T22:42:07.513Z,9.53
2022-09-21T22:44:35.876Z,8.10
2022-09-21T22:47:03.850Z,14.57
2022-09-21T22:49:31.865Z,8.13
2022-09-21T22:52:01.226Z,7.43
2022-09-21T22:54:29.191Z,10.23
2022-09-21T22:56:57.121Z,11.90
2022-09-21T22:59:25.163Z,10.30
2022-09-21T23:01:53.087Z,9.17
2022-09-21T23:04:21.394Z,10.17
2022-09-21T23:06:50.320Z,8.17
2022-09-21T23:09:21.577Z,9.47
2022-09-21T23:11:53.511Z,8.90
2022-09-21T23:14:23.041Z,13.97
2022-09-21T23:16:51.197Z,12.13
2022-09-21T23:19:19.154Z,12.13
2022-09-21T23:21:50.443Z,13.67
2022-09-21T23:24:20.560Z,8.83
2022-09-21T23:26:50.429Z,10.83
2022-09-21T23:29:18.557Z,9.77
2022-09-21T23:31:46.711Z,10.03
2022-09-21T23:34:15.823Z,10.33
2022-09-21T23:36:45.471Z,7.17
2022-09-21T23:39:15.066Z,11.10
2022-09-21T23:41:44.785Z,7.37
2022-09-21T23:44:12.884Z,8.90
2022-09-21T23:46:41.593Z,7.93
2022-09-21T23:49:10.389Z,10.40
2022-09-21T23:51:38.452Z,7.70
2022-09-21T23:54:06.679Z,7.63
2022-09-21T23:56:35.102Z,12.87
2022-09-21T23:59:05.469Z,9.10
